sensor_id;sensor_type;location;lat;lon;timestamp;P1;durP1;ratioP1;P2;durP2;ratioP2
74799;SDS011;63326;45.088;7.658;2023-11-21T00:02:23;13.73;;;8.05;;
74799;SDS011;63326;45.088;7.658;2023-11-21T00:04:50;17.17;;;8.02;;
74799;SDS011;63326;45.088;7.658;2023-11-21T00:07:17;13.15;;;8.90;;
74799;SDS011;63326;45.088;7.658;2023-11-21T00:09:44;13.57;;;7.72;;
74799;SDS011;63326;45.088;7.658;2023-11-21T00:12:10;18.33;;;10.02;;
74799;SDS011;63326;45.088;7.658;2023-11-21T00:14:37;14.52;;;8.80;;
74799;SDS011;63326;45.088;7.658;2023-11-21T00:17:07;17.48;;;8.20;;
74799;SDS011;63326;45.088;7.658;2023-11-21T00:19:34;12.52;;;7.55;;
74799;SDS011;63326;45.088;7.658;2023-11-21T00:22:01;13.05;;;7.65;;
74799;SDS011;63326;45.088;7.658;2023-11-21T00:24:28;16.50;;;8.73;;
74799;SDS011;63326;45.088;7.658;2023-11-21T00:29:22;12.60;;;7.68;;
74799;SDS011;63326;45.088;7.658;2023-11-21T00:31:50;12.32;;;7.32;;
74799;SDS011;63326;45.088;7.658;2023-11-21T00:34:17;13.90;;;9.07;;
74799;SDS011;63326;45.088;7.658;2023-11-21T00:36:44;14.48;;;8.15;;
74799;SDS011;63326;45.088;7.658;2023-11-21T00:39:10;16.88;;;8.95;;
74799;SDS011;63326;45.088;7.658;2023-11-21T00:41:39;13.30;;;8.50;;
74799;SDS011;63326;45.088;7.658;2023-11-21T00:44:05;12.85;;;8.07;;
74799;SDS011;63326;45.088;7.658;2023-11-21T00:46:33;18.67;;;9.40;;
74799;SDS011;63326;45.088;7.658;2023-11-21T00:49:00;13.75;;;8.60;;
74799;SDS011;63326;45.088;7.658;2023-11-21T00:51:26;14.35;;;7.90;;
74799;SDS011;63326;45.088;7.658;2023-11-21T00:53:53;14.52;;;8.73;;
74799;SDS011;63326;45.088;7.658;2023-11-21T00:56:20;14.10;;;7.97;;
74799;SDS011;63326;45.088;7.658;2023-11-21T00:58:46;15.43;;;8.05;;
74799;SDS011;63326;45.088;7.658;2023-11-21T01:01:16;13.65;;;8.82;;
74799;SDS011;63326;45.088;7.658;2023-11-21T01:03:43;16.52;;;7.95;;
74799;SDS011;63326;45.088;7.658;2023-11-21T01:06:12;15.10;;;8.25;;
74799;SDS011;63326;45.088;7.658;2023-11-21T01:08:41;13.88;;;9.48;;
74799;SDS011;63326;45.088;7.658;2023-11-21T01:11:09;15.60;;;8.82;;
74799;SDS011;63326;45.088;7.658;2023-11-21T01:13:39;13.48;;;8.45;;
74799;SDS011;63326;45.088;7.658;2023-11-21T01:16:06;13.07;;;7.75;;
74799;SDS011;63326;45.088;7.658;2023-11-21T01:18:34;15.18;;;9.48;;
74799;SDS011;63326;45.088;7.658;2023-11-21T01:21:01;17.15;;;10.38;;
74799;SDS011;63326;45.088;7.658;2023-11-21T01:23:28;13.18;;;8.88;;
74799;SDS011;63326;45.088;7.658;2023-11-21T01:25:55;16.33;;;9.48;;
74799;SDS011;63326;45.088;7.658;2023-11-21T01:30:49;12.40;;;6.95;;
74799;SDS011;63326;45.088;7.658;2023-11-21T01:33:16;11.70;;;7.07;;
74799;SDS011;63326;45.088;7.658;2023-11-21T01:35:43;20.80;;;8.45;;
74799;SDS011;63326;45.088;7.658;2023-11-21T01:38:09;16.23;;;10.18;;
74799;SDS011;63326;45.088;7.658;2023-11-21T01:43:04;13.65;;;7.20;;
74799;SDS011;63326;45.088;7.658;2023-11-21T01:45:31;15.63;;;7.97;;
74799;SDS011;63326;45.088;7.658;2023-11-21T01:48:00;14.48;;;9.80;;
74799;SDS011;63326;45.088;7.658;2023-11-21T01:50:29;20.83;;;8.88;;
74799;SDS011;63326;45.088;7.658;2023-11-21T01:52:56;13.48;;;7.82;;
74799;SDS011;63326;45.088;7.658;2023-11-21T01:55:23;14.18;;;8.35;;
74799;SDS011;63326;45.088;7.658;2023-11-21T01:57:55;14.93;;;7.90;;
74799;SDS011;63326;45.088;7.658;2023-11-21T02:00:25;11.23;;;8.02;;
74799;SDS011;63326;45.088;7.658;2023-11-21T02:02:55;14.30;;;7.47;;
74799;SDS011;63326;45.088;7.658;2023-11-21T02:05:23;13.50;;;7.60;;
74799;SDS011;63326;45.088;7.658;2023-11-21T02:07:50;14.38;;;8.38;;
74799;SDS011;63326;45.088;7.658;2023-11-21T02:10:18;12.93;;;8.20;;
74799;SDS011;63326;45.088;7.658;2023-11-21T02:12:50;14.40;;;8.52;;
74799;SDS011;63326;45.088;7.658;2023-11-21T02:15:17;12.50;;;8.20;;
74799;SDS011;63326;45.088;7.658;2023-11-21T02:17:48;14.63;;;8.02;;
74799;SDS011;63326;45.088;7.658;2023-11-21T02:20:21;12.90;;;8.32;;
74799;SDS011;63326;45.088;7.658;2023-11-21T02:22:54;14.07;;;8.10;;
74799;SDS011;63326;45.088;7.658;2023-11-21T02:25:25;16.77;;;9.00;;
74799;SDS011;63326;45.088;7.658;2023-11-21T02:27:59;12.35;;;8.48;;
74799;SDS011;63326;45.088;7.658;2023-11-21T02:30:27;15.65;;;9.20;;
74799;SDS011;63326;45.088;7.658;2023-11-21T02:32:54;13.18;;;8.32;;
74799;SDS011;63326;45.088;7.658;2023-11-21T02:35:24;14.07;;;7.45;;
74799;SDS011;63326;45.088;7.658;2023-11-21T02:37:54;14.45;;;7.90;;
74799;SDS011;63326;45.088;7.658;2023-11-21T02:40:21;16.52;;;8.00;;
74799;SDS011;63326;45.088;7.658;2023-11-21T02:42:48;12.80;;;8.45;;
74799;SDS011;63326;45.088;7.658;2023-11-21T02:45:18;13.40;;;8.77;;
74799;SDS011;63326;45.088;7.658;2023-11-21T02:47:48;14.32;;;9.27;;
74799;SDS011;63326;45.088;7.658;2023-11-21T02:50:16;14.45;;;8.13;;
74799;SDS011;63326;45.088;7.658;2023-11-21T02:52:45;16.10;;;9.50;;
74799;SDS011;63326;45.088;7.658;2023-11-21T02:55:13;15.23;;;9.75;;
74799;SDS011;63326;45.088;7.658;2023-11-21T02:57:39;14.20;;;8.73;;
74799;SDS011;63326;45.088;7.658;2023-11-21T03:00:06;17.77;;;9.82;;
74799;SDS011;63326;45.088;7.658;2023-11-21T03:02:34;14.05;;;8.02;;
74799;SDS011;63326;45.088;7.658;2023-11-21T03:05:06;16.10;;;8.95;;
74799;SDS011;63326;45.088;7.658;2023-11-21T03:07:36;16.38;;;9.98;;
74799;SDS011;63326;45.088;7.658;2023-11-21T03:10:04;18.55;;;9.68;;
74799;SDS011;63326;45.088;7.658;2023-11-21T03:12:31;24.75;;;9.85;;
74799;SDS011;63326;45.088;7.658;2023-11-21T03:14:58;20.98;;;10.52;;
74799;SDS011;63326;45.088;7.658;2023-11-21T03:17:24;17.45;;;9.98;;
74799;SDS011;63326;45.088;7.658;2023-11-21T03:19:51;17.95;;;9.75;;
74799;SDS011;63326;45.088;7.658;2023-11-21T03:22:18;16.80;;;9.90;;
74799;SDS011;63326;45.088;7.658;2023-11-21T03:24:45;15.93;;;9.75;;
74799;SDS011;63326;45.088;7.658;2023-11-21T03:27:12;14.90;;;9.57;;
74799;SDS011;63326;45.088;7.658;2023-11-21T03:29:39;17.63;;;9.18;;
74799;SDS011;63326;45.088;7.658;2023-11-21T03:32:06;14.82;;;9.00;;
74799;SDS011;63326;45.088;7.658;2023-11-21T03:34:33;19.40;;;10.90;;
74799;SDS011;63326;45.088;7.658;2023-11-21T03:37:00;17.25;;;10.40;;
74799;SDS011;63326;45.088;7.658;2023-11-21T03:39:27;15.65;;;10.75;;
74799;SDS011;63326;45.088;7.658;2023-11-21T03:41:55;23.67;;;11.18;;
74799;SDS011;63326;45.088;7.658;2023-11-21T03:44:22;17.48;;;10.25;;
74799;SDS011;63326;45.088;7.658;2023-11-21T03:46:50;17.80;;;10.45;;
74799;SDS011;63326;45.088;7.658;2023-11-21T03:49:17;16.88;;;9.82;;
74799;SDS011;63326;45.088;7.658;2023-11-21T03:51:44;17.35;;;10.93;;
74799;SDS011;63326;45.088;7.658;2023-11-21T03:54:10;16.88;;;11.02;;
74799;SDS011;63326;45.088;7.658;2023-11-21T03:56:38;15.60;;;10.90;;
74799;SDS011;63326;45.088;7.658;2023-11-21T03:59:05;15.93;;;10.15;;
74799;SDS011;63326;45.088;7.658;2023-11-21T04:01:32;17.90;;;10.73;;
74799;SDS011;63326;45.088;7.658;2023-11-21T04:03:59;17.88;;;11.35;;
74799;SDS011;63326;45.088;7.658;2023-11-21T04:06:26;16.88;;;10.80;;
74799;SDS011;63326;45.088;7.658;2023-11-21T04:08:52;17.27;;;11.20;;
74799;SDS011;63326;45.088;7.658;2023-11-21T04:11:19;18.45;;;10.73;;
74799;SDS011;63326;45.088;7.658;2023-11-21T04:13:46;16.80;;;9.63;;
74799;SDS011;63326;45.088;7.658;2023-11-21T04:16:13;18.65;;;10.60;;
74799;SDS011;63326;45.088;7.658;2023-11-21T04:18:40;18.80;;;10.70;;
74799;SDS011;63326;45.088;7.658;2023-11-21T04:21:07;19.13;;;9.98;;
74799;SDS011;63326;45.088;7.658;2023-11-21T04:23:34;18.40;;;11.10;;
74799;SDS011;63326;45.088;7.658;2023-11-21T04:26:01;18.15;;;9.57;;
74799;SDS011;63326;45.088;7.658;2023-11-21T04:28:28;17.58;;;10.82;;
74799;SDS011;63326;45.088;7.658;2023-11-21T04:30:55;18.85;;;10.65;;
74799;SDS011;63326;45.088;7.658;2023-11-21T04:33:22;13.93;;;9.25;;
74799;SDS011;63326;45.088;7.658;2023-11-21T04:35:49;20.17;;;10.48;;
74799;SDS011;63326;45.088;7.658;2023-11-21T04:38:16;18.83;;;9.98;;
74799;SDS011;63326;45.088;7.658;2023-11-21T04:40:42;19.67;;;10.68;;
74799;SDS011;63326;45.088;7.658;2023-11-21T04:43:09;20.38;;;9.95;;
74799;SDS011;63326;45.088;7.658;2023-11-21T04:45:36;19.33;;;9.40;;
74799;SDS011;63326;45.088;7.658;2023-11-21T04:48:03;16.80;;;10.27;;
74799;SDS011;63326;45.088;7.658;2023-11-21T04:50:30;16.38;;;9.93;;
74799;SDS011;63326;45.088;7.658;2023-11-21T04:52:57;16.17;;;9.68;;
74799;SDS011;63326;45.088;7.658;2023-11-21T04:55:24;14.73;;;10.07;;
74799;SDS011;63326;45.088;7.658;2023-11-21T04:57:54;19.13;;;9.18;;
74799;SDS011;63326;45.088;7.658;2023-11-21T05:00:21;18.88;;;10.50;;
74799;SDS011;63326;45.088;7.658;2023-11-21T05:02:47;14.77;;;9.35;;
74799;SDS011;63326;45.088;7.658;2023-11-21T05:05:14;17.70;;;10.68;;
74799;SDS011;63326;45.088;7.658;2023-11-21T05:07:41;16.52;;;9.55;;
74799;SDS011;63326;45.088;7.658;2023-11-21T05:10:09;17.23;;;11.20;;
74799;SDS011;63326;45.088;7.658;2023-11-21T05:12:39;17.20;;;9.77;;
74799;SDS011;63326;45.088;7.658;2023-11-21T05:15:07;20.65;;;11.43;;
74799;SDS011;63326;45.088;7.658;2023-11-21T05:17:38;18.63;;;9.63;;
74799;SDS011;63326;45.088;7.658;2023-11-21T05:20:10;22.13;;;11.27;;
74799;SDS011;63326;45.088;7.658;2023-11-21T05:22:38;18.15;;;10.10;;
74799;SDS011;63326;45.088;7.658;2023-11-21T05:25:05;15.98;;;10.18;;
74799;SDS011;63326;45.088;7.658;2023-11-21T05:27:34;19.10;;;10.43;;
74799;SDS011;63326;45.088;7.658;2023-11-21T05:30:02;17.98;;;10.40;;
74799;SDS011;63326;45.088;7.658;2023-11-21T05:32:32;15.75;;;9.80;;
74799;SDS011;63326;45.088;7.658;2023-11-21T05:34:59;18.10;;;10.75;;
74799;SDS011;63326;45.088;7.658;2023-11-21T05:37:26;17.42;;;9.05;;
74799;SDS011;63326;45.088;7.658;2023-11-21T05:39:53;24.92;;;10.57;;
74799;SDS011;63326;45.088;7.658;2023-11-21T05:42:22;20.55;;;11.43;;
74799;SDS011;63326;45.088;7.658;2023-11-21T05:44:50;16.42;;;9.25;;
74799;SDS011;63326;45.088;7.658;2023-11-21T05:47:16;18.15;;;10.57;;
74799;SDS011;63326;45.088;7.658;2023-11-21T05:49:44;15.57;;;8.40;;
74799;SDS011;63326;45.088;7.658;2023-11-21T05:52:16;16.45;;;9.85;;
74799;SDS011;63326;45.088;7.658;2023-11-21T05:54:43;19.10;;;10.70;;
74799;SDS011;63326;45.088;7.658;2023-11-21T05:57:10;23.55;;;11.38;;
74799;SDS011;63326;45.088;7.658;2023-11-21T05:59:36;17.73;;;10.82;;
74799;SDS011;63326;45.088;7.658;2023-11-21T06:02:03;15.18;;;9.63;;
74799;SDS011;63326;45.088;7.658;2023-11-21T06:04:31;16.00;;;9.80;;
74799;SDS011;63326;45.088;7.658;2023-11-21T06:06:58;18.85;;;10.00;;
74799;SDS011;63326;45.088;7.658;2023-11-21T06:09:24;17.45;;;10.98;;
74799;SDS011;63326;45.088;7.658;2023-11-21T06:11:51;15.95;;;9.35;;
74799;SDS011;63326;45.088;7.658;2023-11-21T06:14:18;19.90;;;9.80;;
74799;SDS011;63326;45.088;7.658;2023-11-21T06:16:45;20.83;;;10.73;;
74799;SDS011;63326;45.088;7.658;2023-11-21T06:19:12;15.85;;;10.02;;
74799;SDS011;63326;45.088;7.658;2023-11-21T06:21:38;20.73;;;10.30;;
74799;SDS011;63326;45.088;7.658;2023-11-21T06:24:05;18.67;;;10.52;;
74799;SDS011;63326;45.088;7.658;2023-11-21T06:26:33;16.55;;;9.65;;
74799;SDS011;63326;45.088;7.658;2023-11-21T06:29:00;19.52;;;10.35;;
74799;SDS011;63326;45.088;7.658;2023-11-21T06:31:29;19.13;;;11.18;;
74799;SDS011;63326;45.088;7.658;2023-11-21T06:33:56;18.63;;;11.52;;
74799;SDS011;63326;45.088;7.658;2023-11-21T06:36:24;15.52;;;10.40;;
74799;SDS011;63326;45.088;7.658;2023-11-21T06:38:51;18.63;;;9.63;;
74799;SDS011;63326;45.088;7.658;2023-11-21T06:41:17;18.33;;;10.45;;
74799;SDS011;63326;45.088;7.658;2023-11-21T06:43:44;17.60;;;10.00;;
74799;SDS011;63326;45.088;7.658;2023-11-21T06:46:13;18.25;;;11.95;;
74799;SDS011;63326;45.088;7.658;2023-11-21T06:48:42;17.25;;;10.45;;
74799;SDS011;63326;45.088;7.658;2023-11-21T06:51:09;19.90;;;11.00;;
74799;SDS011;63326;45.088;7.658;2023-11-21T06:53:36;21.10;;;12.70;;
74799;SDS011;63326;45.088;7.658;2023-11-21T06:56:05;21.77;;;11.57;;
74799;SDS011;63326;45.088;7.658;2023-11-21T06:58:41;19.67;;;10.85;;
74799;SDS011;63326;45.088;7.658;2023-11-21T07:01:08;19.88;;;11.93;;
74799;SDS011;63326;45.088;7.658;2023-11-21T07:03:35;19.40;;;11.23;;
74799;SDS011;63326;45.088;7.658;2023-11-21T07:06:04;20.80;;;11.68;;
74799;SDS011;63326;45.088;7.658;2023-11-21T07:08:31;18.70;;;10.38;;
74799;SDS011;63326;45.088;7.658;2023-11-21T07:10:57;21.55;;;11.82;;
74799;SDS011;63326;45.088;7.658;2023-11-21T07:13:24;18.63;;;11.10;;
74799;SDS011;63326;45.088;7.658;2023-11-21T07:15:52;20.77;;;12.25;;
74799;SDS011;63326;45.088;7.658;2023-11-21T07:18:19;20.15;;;10.43;;
74799;SDS011;63326;45.088;7.658;2023-11-21T07:20:45;19.15;;;11.10;;
74799;SDS011;63326;45.088;7.658;2023-11-21T07:23:12;22.40;;;12.55;;
74799;SDS011;63326;45.088;7.658;2023-11-21T07:25:39;21.45;;;12.63;;
74799;SDS011;63326;45.088;7.658;2023-11-21T07:28:08;20.08;;;11.10;;
74799;SDS011;63326;45.088;7.658;2023-11-21T07:30:34;22.10;;;10.52;;
74799;SDS011;63326;45.088;7.658;2023-11-21T07:33:01;19.88;;;11.32;;
74799;SDS011;63326;45.088;7.658;2023-11-21T07:35:28;21.00;;;12.05;;
74799;SDS011;63326;45.088;7.658;2023-11-21T07:37:54;17.73;;;10.68;;
74799;SDS011;63326;45.088;7.658;2023-11-21T07:40:21;22.40;;;12.02;;
74799;SDS011;63326;45.088;7.658;2023-11-21T07:42:49;18.85;;;10.15;;
74799;SDS011;63326;45.088;7.658;2023-11-21T07:45:17;20.13;;;10.88;;
74799;SDS011;63326;45.088;7.658;2023-11-21T07:47:43;21.23;;;11.80;;
74799;SDS011;63326;45.088;7.658;2023-11-21T07:50:10;17.23;;;10.68;;
74799;SDS011;63326;45.088;7.658;2023-11-21T07:52:37;16.83;;;11.23;;
74799;SDS011;63326;45.088;7.658;2023-11-21T07:55:04;16.58;;;11.38;;
74799;SDS011;63326;45.088;7.658;2023-11-21T07:57:31;19.70;;;10.93;;
74799;SDS011;63326;45.088;7.658;2023-11-21T07:59:57;21.83;;;12.15;;
74799;SDS011;63326;45.088;7.658;2023-11-21T08:02:24;21.05;;;12.57;;
74799;SDS011;63326;45.088;7.658;2023-11-21T08:04:52;17.15;;;11.52;;
74799;SDS011;63326;45.088;7.658;2023-11-21T08:07:19;23.38;;;13.93;;
74799;SDS011;63326;45.088;7.658;2023-11-21T08:09:45;21.20;;;12.10;;
74799;SDS011;63326;45.088;7.658;2023-11-21T08:12:14;25.80;;;13.43;;
74799;SDS011;63326;45.088;7.658;2023-11-21T08:14:41;20.65;;;11.45;;
74799;SDS011;63326;45.088;7.658;2023-11-21T08:17:07;24.20;;;13.35;;
74799;SDS011;63326;45.088;7.658;2023-11-21T08:19:36;20.02;;;12.32;;
74799;SDS011;63326;45.088;7.658;2023-11-21T08:22:03;19.13;;;12.77;;
74799;SDS011;63326;45.088;7.658;2023-11-21T08:24:30;21.85;;;12.40;;
74799;SDS011;63326;45.088;7.658;2023-11-21T08:26:57;25.88;;;12.75;;
74799;SDS011;63326;45.088;7.658;2023-11-21T08:29:24;27.67;;;12.55;;
74799;SDS011;63326;45.088;7.658;2023-11-21T08:31:51;29.00;;;14.13;;
74799;SDS011;63326;45.088;7.658;2023-11-21T08:34:18;27.17;;;12.45;;
74799;SDS011;63326;45.088;7.658;2023-11-21T08:36:45;28.48;;;12.43;;
74799;SDS011;63326;45.088;7.658;2023-11-21T08:39:12;21.88;;;11.68;;
74799;SDS011;63326;45.088;7.658;2023-11-21T08:41:39;26.13;;;14.50;;
74799;SDS011;63326;45.088;7.658;2023-11-21T08:44:06;25.52;;;12.88;;
74799;SDS011;63326;45.088;7.658;2023-11-21T08:46:33;22.90;;;12.30;;
74799;SDS011;63326;45.088;7.658;2023-11-21T08:49:00;28.80;;;13.60;;
74799;SDS011;63326;45.088;7.658;2023-11-21T08:51:27;26.95;;;13.07;;
74799;SDS011;63326;45.088;7.658;2023-11-21T08:53:54;29.98;;;14.38;;
74799;SDS011;63326;45.088;7.658;2023-11-21T08:56:25;21.58;;;13.27;;
74799;SDS011;63326;45.088;7.658;2023-11-21T08:58:52;28.08;;;13.77;;
74799;SDS011;63326;45.088;7.658;2023-11-21T09:01:19;24.00;;;13.55;;
74799;SDS011;63326;45.088;7.658;2023-11-21T09:03:45;24.25;;;13.00;;
74799;SDS011;63326;45.088;7.658;2023-11-21T09:06:12;29.48;;;14.93;;
74799;SDS011;63326;45.088;7.658;2023-11-21T09:08:40;28.60;;;14.77;;
74799;SDS011;63326;45.088;7.658;2023-11-21T09:11:08;20.40;;;13.40;;
74799;SDS011;63326;45.088;7.658;2023-11-21T09:13:35;27.77;;;13.35;;
74799;SDS011;63326;45.088;7.658;2023-11-21T09:16:02;25.90;;;14.77;;
74799;SDS011;63326;45.088;7.658;2023-11-21T09:18:29;33.60;;;13.65;;
74799;SDS011;63326;45.088;7.658;2023-11-21T09:20:57;22.70;;;13.48;;
74799;SDS011;63326;45.088;7.658;2023-11-21T09:23:24;25.92;;;14.13;;
74799;SDS011;63326;45.088;7.658;2023-11-21T09:25:51;28.80;;;14.63;;
74799;SDS011;63326;45.088;7.658;2023-11-21T09:28:18;25.92;;;13.50;;
74799;SDS011;63326;45.088;7.658;2023-11-21T09:30:45;26.45;;;14.30;;
74799;SDS011;63326;45.088;7.658;2023-11-21T09:33:11;21.65;;;12.27;;
74799;SDS011;63326;45.088;7.658;2023-11-21T09:35:38;29.15;;;15.88;;
74799;SDS011;63326;45.088;7.658;2023-11-21T09:38:05;24.95;;;14.77;;
74799;SDS011;63326;45.088;7.658;2023-11-21T09:40:36;26.63;;;15.45;;
74799;SDS011;63326;45.088;7.658;2023-11-21T09:43:09;29.90;;;15.20;;
74799;SDS011;63326;45.088;7.658;2023-11-21T09:45:47;28.73;;;13.60;;
74799;SDS011;63326;45.088;7.658;2023-11-21T09:48:19;30.80;;;15.32;;
74799;SDS011;63326;45.088;7.658;2023-11-21T09:50:47;36.13;;;16.38;;
74799;SDS011;63326;45.088;7.658;2023-11-21T09:53:18;25.08;;;15.05;;
74799;SDS011;63326;45.088;7.658;2023-11-21T09:55:52;32.88;;;16.23;;
74799;SDS011;63326;45.088;7.658;2023-11-21T09:58:20;35.30;;;14.82;;
74799;SDS011;63326;45.088;7.658;2023-11-21T10:00:52;28.42;;;15.75;;
74799;SDS011;63326;45.088;7.658;2023-11-21T10:03:20;28.88;;;14.73;;
74799;SDS011;63326;45.088;7.658;2023-11-21T10:05:48;29.45;;;16.15;;
74799;SDS011;63326;45.088;7.658;2023-11-21T10:08:17;25.83;;;13.57;;
74799;SDS011;63326;45.088;7.658;2023-11-21T10:10:44;28.13;;;15.27;;
74799;SDS011;63326;45.088;7.658;2023-11-21T10:13:14;22.58;;;13.93;;
74799;SDS011;63326;45.088;7.658;2023-11-21T10:15:44;24.38;;;14.82;;
74799;SDS011;63326;45.088;7.658;2023-11-21T10:18:17;32.03;;;16.25;;
74799;SDS011;63326;45.088;7.658;2023-11-21T10:20:44;32.08;;;14.98;;
74799;SDS011;63326;45.088;7.658;2023-11-21T10:23:19;26.33;;;15.70;;
74799;SDS011;63326;45.088;7.658;2023-11-21T10:25:48;34.95;;;16.20;;
74799;SDS011;63326;45.088;7.658;2023-11-21T10:28:16;29.23;;;14.73;;
74799;SDS011;63326;45.088;7.658;2023-11-21T10:30:42;28.65;;;16.70;;
74799;SDS011;63326;45.088;7.658;2023-11-21T10:35:47;24.65;;;14.15;;
74799;SDS011;63326;45.088;7.658;2023-11-21T10:38:20;31.98;;;14.82;;
74799;SDS011;63326;45.088;7.658;2023-11-21T10:40:50;34.28;;;16.17;;
74799;SDS011;63326;45.088;7.658;2023-11-21T10:43:17;29.88;;;13.65;;
74799;SDS011;63326;45.088;7.658;2023-11-21T10:45:45;31.92;;;17.58;;
74799;SDS011;63326;45.088;7.658;2023-11-21T10:48:12;27.45;;;15.20;;
74799;SDS011;63326;45.088;7.658;2023-11-21T10:50:45;31.10;;;17.20;;
74799;SDS011;63326;45.088;7.658;2023-11-21T10:53:13;25.33;;;13.77;;
74799;SDS011;63326;45.088;7.658;2023-11-21T10:55:40;33.10;;;15.25;;
74799;SDS011;63326;45.088;7.658;2023-11-21T10:58:08;30.17;;;15.80;;
74799;SDS011;63326;45.088;7.658;2023-11-21T11:00:37;24.65;;;15.02;;
74799;SDS011;63326;45.088;7.658;2023-11-21T11:03:06;33.45;;;16.73;;
74799;SDS011;63326;45.088;7.658;2023-11-21T11:05:40;31.83;;;15.80;;
74799;SDS011;63326;45.088;7.658;2023-11-21T11:08:12;33.67;;;15.40;;
74799;SDS011;63326;45.088;7.658;2023-11-21T11:10:45;28.70;;;15.07;;
74799;SDS011;63326;45.088;7.658;2023-11-21T11:13:15;30.85;;;15.15;;
74799;SDS011;63326;45.088;7.658;2023-11-21T11:15:42;37.60;;;16.60;;
74799;SDS011;63326;45.088;7.658;2023-11-21T11:18:10;28.90;;;14.85;;
74799;SDS011;63326;45.088;7.658;2023-11-21T11:20:38;31.08;;;15.65;;
74799;SDS011;63326;45.088;7.658;2023-11-21T11:28:44;35.60;;;15.05;;
74799;SDS011;63326;45.088;7.658;2023-11-21T11:34:17;31.00;;;16.63;;
74799;SDS011;63326;45.088;7.658;2023-11-21T11:36:55;36.45;;;16.90;;
74799;SDS011;63326;45.088;7.658;2023-11-21T11:39:38;31.30;;;15.50;;
74799;SDS011;63326;45.088;7.658;2023-11-21T11:42:08;25.60;;;14.65;;
74799;SDS011;63326;45.088;7.658;2023-11-21T11:52:41;33.20;;;17.10;;
74799;SDS011;63326;45.088;7.658;2023-11-21T11:55:11;34.15;;;15.82;;
74799;SDS011;63326;45.088;7.658;2023-11-21T11:57:45;31.63;;;15.43;;
74799;SDS011;63326;45.088;7.658;2023-11-21T12:00:17;35.10;;;17.65;;
74799;SDS011;63326;45.088;7.658;2023-11-21T12:02:52;33.58;;;16.17;;
74799;SDS011;63326;45.088;7.658;2023-11-21T12:05:26;31.27;;;16.60;;
74799;SDS011;63326;45.088;7.658;2023-11-21T12:08:05;30.15;;;14.90;;
74799;SDS011;63326;45.088;7.658;2023-11-21T12:10:34;32.38;;;15.38;;
74799;SDS011;63326;45.088;7.658;2023-11-21T12:15:34;31.38;;;15.82;;
74799;SDS011;63326;45.088;7.658;2023-11-21T12:18:01;35.40;;;16.80;;
74799;SDS011;63326;45.088;7.658;2023-11-21T12:20:30;35.33;;;16.63;;
74799;SDS011;63326;45.088;7.658;2023-11-21T12:23:05;29.92;;;15.90;;
74799;SDS011;63326;45.088;7.658;2023-11-21T12:25:32;27.73;;;16.08;;
74799;SDS011;63326;45.088;7.658;2023-11-21T12:27:59;34.40;;;17.48;;
74799;SDS011;63326;45.088;7.658;2023-11-21T12:30:27;30.88;;;15.95;;
74799;SDS011;63326;45.088;7.658;2023-11-21T12:32:58;27.63;;;16.23;;
74799;SDS011;63326;45.088;7.658;2023-11-21T12:35:26;34.65;;;16.98;;
74799;SDS011;63326;45.088;7.658;2023-11-21T12:37:56;35.35;;;16.98;;
74799;SDS011;63326;45.088;7.658;2023-11-21T12:40:24;29.60;;;15.73;;
74799;SDS011;63326;45.088;7.658;2023-11-21T12:42:52;29.05;;;15.98;;
74799;SDS011;63326;45.088;7.658;2023-11-21T12:50:20;34.58;;;15.93;;
74799;SDS011;63326;45.088;7.658;2023-11-21T12:52:50;33.85;;;17.10;;
74799;SDS011;63326;45.088;7.658;2023-11-21T12:55:18;34.05;;;16.20;;
74799;SDS011;63326;45.088;7.658;2023-11-21T12:57:48;29.95;;;16.77;;
74799;SDS011;63326;45.088;7.658;2023-11-21T13:00:18;29.88;;;17.15;;
74799;SDS011;63326;45.088;7.658;2023-11-21T13:02:55;31.33;;;15.07;;
74799;SDS011;63326;45.088;7.658;2023-11-21T13:05:28;33.45;;;16.67;;
74799;SDS011;63326;45.088;7.658;2023-11-21T13:08:08;28.98;;;15.88;;
74799;SDS011;63326;45.088;7.658;2023-11-21T13:10:39;27.30;;;15.20;;
74799;SDS011;63326;45.088;7.658;2023-11-21T13:13:10;30.67;;;14.48;;
74799;SDS011;63326;45.088;7.658;2023-11-21T13:16:02;29.23;;;16.02;;
74799;SDS011;63326;45.088;7.658;2023-11-21T13:18:33;29.30;;;15.38;;
74799;SDS011;63326;45.088;7.658;2023-11-21T13:21:04;31.52;;;14.82;;
74799;SDS011;63326;45.088;7.658;2023-11-21T13:23:39;25.75;;;14.02;;
74799;SDS011;63326;45.088;7.658;2023-11-21T13:26:08;30.20;;;15.35;;
74799;SDS011;63326;45.088;7.658;2023-11-21T13:28:35;29.98;;;17.33;;
74799;SDS011;63326;45.088;7.658;2023-11-21T13:31:04;29.60;;;16.05;;
74799;SDS011;63326;45.088;7.658;2023-11-21T13:33:48;30.30;;;16.33;;
74799;SDS011;63326;45.088;7.658;2023-11-21T13:36:23;30.38;;;14.75;;
74799;SDS011;63326;45.088;7.658;2023-11-21T13:38:50;25.35;;;15.52;;
74799;SDS011;63326;45.088;7.658;2023-11-21T13:41:21;28.05;;;15.05;;
74799;SDS011;63326;45.088;7.658;2023-11-21T13:46:30;27.58;;;14.18;;
74799;SDS011;63326;45.088;7.658;2023-11-21T13:49:03;28.08;;;15.45;;
74799;SDS011;63326;45.088;7.658;2023-11-21T13:51:35;36.60;;;16.05;;
74799;SDS011;63326;45.088;7.658;2023-11-21T13:54:10;27.80;;;14.40;;
74799;SDS011;63326;45.088;7.658;2023-11-21T13:56:37;28.88;;;15.63;;
74799;SDS011;63326;45.088;7.658;2023-11-21T13:59:05;28.33;;;14.82;;
74799;SDS011;63326;45.088;7.658;2023-11-21T14:02:00;28.80;;;13.60;;
74799;SDS011;63326;45.088;7.658;2023-11-21T14:04:43;26.50;;;14.48;;
74799;SDS011;63326;45.088;7.658;2023-11-21T14:07:16;29.10;;;14.15;;
74799;SDS011;63326;45.088;7.658;2023-11-21T14:10:02;27.65;;;13.93;;
74799;SDS011;63326;45.088;7.658;2023-11-21T14:12:30;27.77;;;14.13;;
74799;SDS011;63326;45.088;7.658;2023-11-21T14:15:04;24.38;;;13.48;;
74799;SDS011;63326;45.088;7.658;2023-11-21T14:17:33;28.35;;;14.27;;
74799;SDS011;63326;45.088;7.658;2023-11-21T14:20:01;31.67;;;15.15;;
74799;SDS011;63326;45.088;7.658;2023-11-21T14:22:31;25.15;;;13.57;;
74799;SDS011;63326;45.088;7.658;2023-11-21T14:24:58;29.02;;;15.30;;
74799;SDS011;63326;45.088;7.658;2023-11-21T14:27:26;25.40;;;13.48;;
74799;SDS011;63326;45.088;7.658;2023-11-21T14:29:53;27.55;;;14.32;;
74799;SDS011;63326;45.088;7.658;2023-11-21T14:32:20;24.70;;;14.23;;
74799;SDS011;63326;45.088;7.658;2023-11-21T14:37:14;24.67;;;13.50;;
74799;SDS011;63326;45.088;7.658;2023-11-21T14:39:41;26.63;;;14.38;;
74799;SDS011;63326;45.088;7.658;2023-11-21T14:42:12;25.55;;;14.23;;
74799;SDS011;63326;45.088;7.658;2023-11-21T14:44:41;27.88;;;14.68;;
74799;SDS011;63326;45.088;7.658;2023-11-21T14:47:09;26.55;;;14.13;;
74799;SDS011;63326;45.088;7.658;2023-11-21T14:49:42;30.77;;;15.95;;
74799;SDS011;63326;45.088;7.658;2023-11-21T14:52:20;32.33;;;15.82;;
74799;SDS011;63326;45.088;7.658;2023-11-21T14:55:01;31.38;;;15.25;;
74799;SDS011;63326;45.088;7.658;2023-11-21T14:57:51;24.05;;;13.73;;
74799;SDS011;63326;45.088;7.658;2023-11-21T15:00:18;25.75;;;15.63;;
74799;SDS011;63326;45.088;7.658;2023-11-21T15:03:01;31.63;;;15.88;;
74799;SDS011;63326;45.088;7.658;2023-11-21T15:05:28;27.70;;;14.95;;
74799;SDS011;63326;45.088;7.658;2023-11-21T15:07:56;28.58;;;15.02;;
74799;SDS011;63326;45.088;7.658;2023-11-21T15:10:34;28.88;;;14.73;;
74799;SDS011;63326;45.088;7.658;2023-11-21T15:13:27;29.85;;;14.50;;
74799;SDS011;63326;45.088;7.658;2023-11-21T15:15:54;29.90;;;15.85;;